QTR6AA OTHH-UAAA
Flight info
| Callsign | QTR6AA |
|---|---|
| Flight time | N/A |
| Altitude | 35000 |
| Route | ALVEN P430 BONAN P550 PEGET/N0490F370 P550 SYZ G663 MSD A647 NAZAR A847 LBA B376 MANAT/K0893F370 L141 TISIB P984 MAMIR L135 LAKEL LAKEL2J |
| Aircraft | B77W/H-SDE1E2E3FGHIJ2J3J4J5M1RWXY/LB1D1 |
Departure
| Time | 2026-05-07 06:06 |
|---|---|
| Airport | Hamad International Airport (OTHH) |
Arrival
| Time | N/A |
|---|---|
| Airport | Almaty International Airport (UAAA) |
| Time | Latitude | Longitude | Altitude | Speed | Heading |
|---|---|---|---|---|---|
| 2026-05-07 06:06 | 25.49973 | 51.65453 | 9814 ft | 371 kts | 29° |
| 2026-05-07 06:06 | 25.52287 | 51.66823 | 10755 ft | 383 kts | 29° |
| 2026-05-07 06:06 | 25.54671 | 51.68222 | 11711 ft | 391 kts | 28° |
| 2026-05-07 06:07 | 25.57102 | 51.69634 | 12697 ft | 397 kts | 29° |
| 2026-05-07 06:07 | 25.59568 | 51.71055 | 13706 ft | 403 kts | 28° |
| 2026-05-07 06:07 | 25.62070 | 51.72491 | 14633 ft | 409 kts | 28° |
| 2026-05-07 06:07 | 25.64618 | 51.73950 | 15579 ft | 416 kts | 28° |
| 2026-05-07 06:08 | 25.67173 | 51.75413 | 16557 ft | 422 kts | 28° |
| 2026-05-07 06:08 | 25.69807 | 51.76921 | 17571 ft | 430 kts | 28° |
| 2026-05-07 06:08 | 25.72488 | 51.78456 | 18554 ft | 438 kts | 27° |
| 2026-05-07 06:08 | 25.75220 | 51.80022 | 19481 ft | 446 kts | 27° |
| 2026-05-07 06:09 | 25.77998 | 51.81614 | 20428 ft | 452 kts | 27° |
| 2026-05-07 06:09 | 25.80848 | 51.83123 | 21401 ft | 456 kts | 24° |
| 2026-05-07 06:09 | 25.83764 | 51.84527 | 22413 ft | 455 kts | 22° |
| 2026-05-07 06:09 | 25.86674 | 51.85877 | 23434 ft | 452 kts | 21° |
| 2026-05-07 06:10 | 25.89558 | 51.87210 | 23936 ft | 461 kts | 21° |
| 2026-05-07 06:10 | 25.92561 | 51.88609 | 24185 ft | 475 kts | 21° |
| 2026-05-07 06:10 | 25.95633 | 51.90058 | 24510 ft | 485 kts | 21° |
| 2026-05-07 06:10 | 25.98753 | 51.91545 | 24959 ft | 490 kts | 21° |
| 2026-05-07 06:11 | 26.01899 | 51.93053 | 25478 ft | 494 kts | 21° |
| 2026-05-07 06:11 | 26.05072 | 51.94579 | 25985 ft | 499 kts | 21° |
| 2026-05-07 06:11 | 26.08273 | 51.96119 | 26440 ft | 504 kts | 21° |
| 2026-05-07 06:11 | 26.11511 | 51.97676 | 26890 ft | 509 kts | 21° |
| 2026-05-07 06:12 | 26.14780 | 51.99249 | 27321 ft | 514 kts | 21° |
| 2026-05-07 06:12 | 26.18083 | 52.00838 | 27735 ft | 519 kts | 21° |
| 2026-05-07 06:12 | 26.21413 | 52.02441 | 28142 ft | 524 kts | 20° |
| 2026-05-07 06:12 | 26.24766 | 52.04057 | 28538 ft | 528 kts | 20° |
| 2026-05-07 06:13 | 26.28150 | 52.05688 | 28931 ft | 532 kts | 20° |
| 2026-05-07 06:13 | 26.31556 | 52.07331 | 29327 ft | 535 kts | 20° |
| 2026-05-07 06:13 | 26.34959 | 52.09049 | 29687 ft | 540 kts | 22° |
| 2026-05-07 06:13 | 26.38329 | 52.10933 | 30044 ft | 543 kts | 24° |
| 2026-05-07 06:14 | 26.41693 | 52.12843 | 30456 ft | 542 kts | 23° |
| 2026-05-07 06:14 | 26.45026 | 52.14699 | 30927 ft | 541 kts | 22° |
| 2026-05-07 06:14 | 26.48394 | 52.16567 | 31389 ft | 540 kts | 22° |
| 2026-05-07 06:14 | 26.51757 | 52.18436 | 31846 ft | 540 kts | 22° |
| 2026-05-07 06:15 | 26.55146 | 52.20249 | 32251 ft | 537 kts | 18° |
| 2026-05-07 06:15 | 26.58648 | 52.21634 | 32670 ft | 532 kts | 11° |
| 2026-05-07 06:15 | 26.62235 | 52.22602 | 33112 ft | 527 kts | 5° |
| 2026-05-07 06:15 | 26.65847 | 52.23189 | 33520 ft | 521 kts | 358° |
| 2026-05-07 06:16 | 26.69454 | 52.23348 | 33953 ft | 516 kts | 354° |
| 2026-05-07 06:16 | 26.73043 | 52.23455 | 34324 ft | 516 kts | 355° |
| 2026-05-07 06:16 | 26.75421 | 52.23553 | 34579 ft | 516 kts | 355° |
| 2026-05-07 06:16 | 26.80175 | 52.23808 | 35095 ft | 515 kts | 356° |
| 2026-05-07 06:17 | 26.83745 | 52.24023 | 35471 ft | 514 kts | 356° |
| 2026-05-07 06:17 | 26.87317 | 52.24240 | 35850 ft | 513 kts | 356° |
| 2026-05-07 06:17 | 26.89684 | 52.24381 | 36086 ft | 513 kts | 356° |
| 2026-05-07 06:17 | 26.93246 | 52.24588 | 36450 ft | 511 kts | 355° |
| 2026-05-07 06:18 | 26.96799 | 52.24790 | 36809 ft | 510 kts | 355° |
| 2026-05-07 06:18 | 27.03939 | 52.25190 | 36840 ft | 515 kts | 355° |
| 2026-05-07 06:19 | 27.11057 | 52.25615 | 36841 ft | 510 kts | 356° |
| 2026-05-07 06:19 | 27.18130 | 52.26098 | 36834 ft | 509 kts | 356° |
| 2026-05-07 06:20 | 27.25190 | 52.26574 | 36840 ft | 508 kts | 356° |
| 2026-05-07 06:20 | 27.32251 | 52.27029 | 36840 ft | 508 kts | 355° |
| 2026-05-07 06:21 | 27.39324 | 52.27472 | 36849 ft | 510 kts | 355° |
| 2026-05-07 06:21 | 27.46419 | 52.27918 | 36849 ft | 511 kts | 355° |
| 2026-05-07 06:22 | 27.53526 | 52.28369 | 36895 ft | 512 kts | 355° |
| 2026-05-07 06:22 | 27.64159 | 52.29047 | 36972 ft | 513 kts | 355° |
| 2026-05-07 06:23 | 27.71282 | 52.29502 | 37008 ft | 513 kts | 355° |
| 2026-05-07 06:23 | 27.78407 | 52.29957 | 37019 ft | 512 kts | 355° |
| 2026-05-07 06:24 | 27.85523 | 52.30413 | 37032 ft | 512 kts | 355° |
| 2026-05-07 06:24 | 27.92636 | 52.30868 | 37003 ft | 512 kts | 355° |
| 2026-05-07 06:25 | 27.99736 | 52.31324 | 36978 ft | 510 kts | 355° |
| 2026-05-07 06:25 | 28.06830 | 52.31779 | 36963 ft | 510 kts | 355° |
| 2026-05-07 06:26 | 28.13939 | 52.32234 | 36914 ft | 511 kts | 355° |
| 2026-05-07 06:26 | 28.21040 | 52.32691 | 36922 ft | 512 kts | 355° |
| 2026-05-07 06:27 | 28.28106 | 52.33147 | 36920 ft | 512 kts | 355° |
| 2026-05-07 06:27 | 28.35225 | 52.33607 | 36919 ft | 513 kts | 355° |
| 2026-05-07 06:28 | 28.42354 | 52.34067 | 36943 ft | 513 kts | 355° |
| 2026-05-07 06:28 | 28.49486 | 52.34529 | 36956 ft | 513 kts | 355° |
| 2026-05-07 06:29 | 28.56630 | 52.35175 | 36968 ft | 521 kts | 1° |
| 2026-05-07 06:29 | 28.63739 | 52.36822 | 36988 ft | 526 kts | 4° |
| 2026-05-07 06:30 | 28.70900 | 52.38639 | 37025 ft | 527 kts | 4° |
| 2026-05-07 06:30 | 28.78066 | 52.40416 | 37028 ft | 527 kts | 4° |
| 2026-05-07 06:31 | 28.85255 | 52.42158 | 37058 ft | 527 kts | 4° |
| 2026-05-07 06:31 | 28.92390 | 52.43880 | 37070 ft | 527 kts | 4° |
| 2026-05-07 06:32 | 28.99565 | 52.45616 | 37094 ft | 526 kts | 4° |
| 2026-05-07 06:32 | 29.06741 | 52.47358 | 37109 ft | 527 kts | 4° |
| 2026-05-07 06:33 | 29.13904 | 52.49104 | 37139 ft | 525 kts | 4° |
| 2026-05-07 06:33 | 29.21058 | 52.50844 | 37154 ft | 526 kts | 4° |
| 2026-05-07 06:34 | 29.28177 | 52.52578 | 37142 ft | 527 kts | 4° |
| 2026-05-07 06:34 | 29.35396 | 52.54342 | 37134 ft | 527 kts | 4° |
| 2026-05-07 06:35 | 29.42541 | 52.56096 | 37167 ft | 522 kts | 4° |
| 2026-05-07 06:35 | 29.49605 | 52.57865 | 37163 ft | 527 kts | 7° |
| 2026-05-07 06:36 | 29.56586 | 52.60803 | 37199 ft | 541 kts | 18° |
| 2026-05-07 06:36 | 29.63205 | 52.65130 | 37199 ft | 549 kts | 26° |
| 2026-05-07 06:37 | 29.69693 | 52.69793 | 37166 ft | 550 kts | 26° |
| 2026-05-07 06:37 | 29.76147 | 52.74401 | 37191 ft | 547 kts | 25° |
| 2026-05-07 06:38 | 29.82636 | 52.78976 | 37184 ft | 546 kts | 25° |
| 2026-05-07 06:38 | 29.89133 | 52.83536 | 37189 ft | 546 kts | 25° |
| 2026-05-07 06:39 | 29.95611 | 52.88092 | 37198 ft | 545 kts | 25° |
| 2026-05-07 06:39 | 30.02083 | 52.92659 | 37193 ft | 544 kts | 25° |
| 2026-05-07 06:40 | 30.08541 | 52.97222 | 37221 ft | 544 kts | 25° |
| 2026-05-07 06:40 | 30.14989 | 53.01788 | 37245 ft | 543 kts | 25° |
| 2026-05-07 06:41 | 30.21395 | 53.06329 | 37228 ft | 544 kts | 25° |
| 2026-05-07 06:41 | 30.27855 | 53.10915 | 37222 ft | 544 kts | 25° |
| 2026-05-07 06:42 | 30.34304 | 53.15502 | 37218 ft | 544 kts | 25° |
| 2026-05-07 06:42 | 30.40743 | 53.20089 | 37223 ft | 543 kts | 25° |
| 2026-05-07 06:43 | 30.47180 | 53.24682 | 37227 ft | 543 kts | 25° |
| 2026-05-07 06:43 | 30.53577 | 53.29251 | 37218 ft | 544 kts | 25° |
| 2026-05-07 06:44 | 30.60039 | 53.33873 | 37214 ft | 544 kts | 25° |
| 2026-05-07 06:44 | 30.66488 | 53.38496 | 37190 ft | 545 kts | 25° |
| 2026-05-07 06:45 | 30.72946 | 53.43130 | 37184 ft | 546 kts | 25° |
| 2026-05-07 06:45 | 30.79409 | 53.47767 | 37145 ft | 546 kts | 25° |
| 2026-05-07 06:46 | 30.85861 | 53.52427 | 37155 ft | 546 kts | 25° |
| 2026-05-07 06:46 | 30.92317 | 53.57090 | 37134 ft | 546 kts | 25° |
| 2026-05-07 06:47 | 30.98766 | 53.61744 | 37133 ft | 545 kts | 25° |
| 2026-05-07 06:47 | 31.05219 | 53.66407 | 37137 ft | 545 kts | 25° |
| 2026-05-07 06:48 | 31.11673 | 53.71081 | 37126 ft | 545 kts | 25° |
| 2026-05-07 06:48 | 31.18066 | 53.75719 | 37148 ft | 545 kts | 25° |
| 2026-05-07 06:49 | 31.24509 | 53.80401 | 37150 ft | 545 kts | 25° |
| 2026-05-07 06:49 | 31.30955 | 53.85093 | 37177 ft | 545 kts | 25° |
| 2026-05-07 06:50 | 31.37391 | 53.89784 | 37188 ft | 545 kts | 25° |
| 2026-05-07 06:50 | 31.43827 | 53.94485 | 37183 ft | 545 kts | 25° |
| 2026-05-07 06:51 | 31.50259 | 53.99190 | 37200 ft | 544 kts | 25° |
| 2026-05-07 06:51 | 31.56627 | 54.03857 | 37212 ft | 543 kts | 25° |
| 2026-05-07 06:52 | 31.63039 | 54.08566 | 37146 ft | 543 kts | 25° |
| 2026-05-07 06:52 | 31.69390 | 54.13232 | 37170 ft | 535 kts | 25° |
| 2026-05-07 06:53 | 31.75710 | 54.17892 | 37157 ft | 541 kts | 25° |
| 2026-05-07 06:53 | 31.82125 | 54.22621 | 37140 ft | 544 kts | 25° |
| 2026-05-07 06:54 | 31.88379 | 54.27662 | 37120 ft | 550 kts | 33° |
| 2026-05-07 06:54 | 31.93936 | 54.33923 | 37130 ft | 558 kts | 45° |
| 2026-05-07 06:55 | 31.98831 | 54.40962 | 37099 ft | 559 kts | 47° |
| 2026-05-07 06:55 | 32.03716 | 54.48088 | 37095 ft | 558 kts | 47° |
| 2026-05-07 06:56 | 32.08652 | 54.55172 | 37103 ft | 558 kts | 46° |
| 2026-05-07 06:56 | 32.13597 | 54.62223 | 37103 ft | 558 kts | 46° |
| 2026-05-07 06:57 | 32.18535 | 54.69294 | 37098 ft | 558 kts | 46° |
| 2026-05-07 06:57 | 32.23456 | 54.76362 | 37076 ft | 557 kts | 46° |
| 2026-05-07 06:58 | 32.28373 | 54.83436 | 37082 ft | 556 kts | 46° |
| 2026-05-07 06:58 | 32.33285 | 54.90513 | 37057 ft | 557 kts | 46° |
| 2026-05-07 06:59 | 32.38191 | 54.97599 | 37044 ft | 557 kts | 46° |
| 2026-05-07 06:59 | 32.43107 | 55.04713 | 37033 ft | 558 kts | 46° |
| 2026-05-07 07:00 | 32.47990 | 55.11790 | 37009 ft | 559 kts | 46° |
| 2026-05-07 07:00 | 32.52894 | 55.18924 | 37012 ft | 558 kts | 46° |
| 2026-05-07 07:01 | 32.57803 | 55.26084 | 37007 ft | 559 kts | 46° |
| 2026-05-07 07:01 | 32.62697 | 55.33245 | 36996 ft | 557 kts | 46° |
| 2026-05-07 07:02 | 32.67569 | 55.40377 | 36996 ft | 555 kts | 46° |
| 2026-05-07 07:02 | 32.72431 | 55.47504 | 36996 ft | 555 kts | 46° |
| 2026-05-07 07:03 | 32.77284 | 55.54633 | 36985 ft | 554 kts | 46° |
| 2026-05-07 07:03 | 32.82096 | 55.61717 | 36986 ft | 553 kts | 47° |
| 2026-05-07 07:04 | 32.86934 | 55.68855 | 36964 ft | 552 kts | 46° |
| 2026-05-07 07:04 | 32.91743 | 55.75960 | 36961 ft | 550 kts | 46° |
| 2026-05-07 07:05 | 32.95727 | 55.81854 | 36958 ft | 550 kts | 46° |
| 2026-05-07 07:05 | 33.00528 | 55.88965 | 36947 ft | 550 kts | 46° |
| 2026-05-07 07:06 | 33.05326 | 55.96087 | 36939 ft | 551 kts | 46° |
| 2026-05-07 07:06 | 33.10124 | 56.03224 | 36944 ft | 552 kts | 47° |
| 2026-05-07 07:07 | 33.14931 | 56.10391 | 36958 ft | 553 kts | 47° |
| 2026-05-07 07:07 | 33.19713 | 56.17533 | 36941 ft | 554 kts | 47° |
| 2026-05-07 07:08 | 33.24525 | 56.24735 | 36932 ft | 554 kts | 47° |
| 2026-05-07 07:08 | 33.29328 | 56.31938 | 36932 ft | 554 kts | 47° |
| 2026-05-07 07:09 | 33.34127 | 56.39134 | 36922 ft | 553 kts | 47° |
| 2026-05-07 07:09 | 33.38927 | 56.46335 | 36921 ft | 553 kts | 47° |
| 2026-05-07 07:10 | 33.43717 | 56.53538 | 36907 ft | 551 kts | 47° |
| 2026-05-07 07:10 | 33.48487 | 56.60726 | 36897 ft | 551 kts | 47° |
| 2026-05-07 07:11 | 33.53230 | 56.67884 | 36892 ft | 551 kts | 47° |
| 2026-05-07 07:11 | 33.58000 | 56.75093 | 36896 ft | 552 kts | 47° |
| 2026-05-07 07:12 | 33.62781 | 56.82337 | 36891 ft | 553 kts | 47° |
| 2026-05-07 07:12 | 33.67649 | 56.89462 | 36904 ft | 550 kts | 41° |
| 2026-05-07 07:13 | 33.73186 | 56.95674 | 36921 ft | 543 kts | 34° |
| 2026-05-07 07:13 | 33.78898 | 57.01628 | 36916 ft | 544 kts | 34° |
| 2026-05-07 07:14 | 33.84557 | 57.07606 | 36918 ft | 545 kts | 35° |
| 2026-05-07 07:14 | 33.90226 | 57.13679 | 36932 ft | 547 kts | 36° |
| 2026-05-07 07:15 | 33.95898 | 57.19782 | 36922 ft | 546 kts | 36° |
| 2026-05-07 07:15 | 34.01553 | 57.25871 | 36912 ft | 544 kts | 36° |
| 2026-05-07 07:16 | 34.07160 | 57.31912 | 36919 ft | 543 kts | 36° |
| 2026-05-07 07:16 | 34.12796 | 57.37995 | 36916 ft | 542 kts | 36° |
| 2026-05-07 07:17 | 34.18443 | 57.44005 | 36919 ft | 540 kts | 34° |
| 2026-05-07 07:17 | 34.24132 | 57.49918 | 36918 ft | 539 kts | 34° |
| 2026-05-07 07:18 | 34.29812 | 57.55845 | 36914 ft | 539 kts | 34° |
| 2026-05-07 07:18 | 34.35483 | 57.61805 | 36921 ft | 539 kts | 34° |
| 2026-05-07 07:19 | 34.41145 | 57.67769 | 36915 ft | 540 kts | 34° |
| 2026-05-07 07:19 | 34.46781 | 57.73706 | 36916 ft | 540 kts | 34° |
| 2026-05-07 07:20 | 34.52449 | 57.79676 | 36920 ft | 540 kts | 34° |
| 2026-05-07 07:20 | 34.58126 | 57.85669 | 36933 ft | 541 kts | 34° |
| 2026-05-07 07:21 | 34.63797 | 57.91669 | 36923 ft | 541 kts | 34° |
| 2026-05-07 07:21 | 34.69461 | 57.97675 | 36918 ft | 540 kts | 34° |
| 2026-05-07 07:22 | 34.75117 | 58.03685 | 36927 ft | 539 kts | 34° |
| 2026-05-07 07:22 | 34.80734 | 58.09661 | 36994 ft | 542 kts | 35° |
| 2026-05-07 07:23 | 34.83574 | 58.12685 | 37305 ft | 542 kts | 35° |
| 2026-05-07 07:23 | 34.86407 | 58.15709 | 37769 ft | 540 kts | 35° |
| 2026-05-07 07:23 | 34.89233 | 58.18729 | 38167 ft | 539 kts | 35° |
| 2026-05-07 07:23 | 34.92045 | 58.21736 | 38552 ft | 538 kts | 35° |
| 2026-05-07 07:24 | 34.94852 | 58.24739 | 38827 ft | 537 kts | 35° |
| 2026-05-07 07:24 | 34.97670 | 58.27755 | 38869 ft | 540 kts | 35° |
| 2026-05-07 07:24 | 35.03318 | 58.33809 | 38920 ft | 539 kts | 35° |
| 2026-05-07 07:25 | 35.11694 | 58.42817 | 38935 ft | 535 kts | 35° |
| 2026-05-07 07:26 | 35.17260 | 58.48815 | 38955 ft | 533 kts | 35° |
| 2026-05-07 07:26 | 35.22831 | 58.54827 | 38979 ft | 534 kts | 35° |
| 2026-05-07 07:27 | 35.28398 | 58.60847 | 38986 ft | 534 kts | 35° |
| 2026-05-07 07:27 | 35.33966 | 58.66882 | 38985 ft | 534 kts | 35° |
| 2026-05-07 07:28 | 35.39498 | 58.72888 | 39009 ft | 534 kts | 35° |
| 2026-05-07 07:28 | 35.45065 | 58.78945 | 38990 ft | 535 kts | 35° |
| 2026-05-07 07:29 | 35.50637 | 58.85017 | 39025 ft | 536 kts | 35° |
| 2026-05-07 07:29 | 35.56222 | 58.91111 | 38987 ft | 536 kts | 36° |
| 2026-05-07 07:30 | 35.61798 | 58.97216 | 39004 ft | 536 kts | 36° |
| 2026-05-07 07:30 | 35.67370 | 59.03326 | 39023 ft | 536 kts | 36° |
| 2026-05-07 07:31 | 35.72898 | 59.09399 | 39001 ft | 536 kts | 36° |
| 2026-05-07 07:31 | 35.78467 | 59.15528 | 39006 ft | 536 kts | 36° |
| 2026-05-07 07:32 | 35.84033 | 59.21666 | 39007 ft | 536 kts | 36° |
| 2026-05-07 07:32 | 35.89580 | 59.27797 | 39019 ft | 535 kts | 36° |
| 2026-05-07 07:33 | 35.95090 | 59.33897 | 39023 ft | 535 kts | 36° |
| 2026-05-07 07:33 | 36.00625 | 59.40038 | 39035 ft | 534 kts | 36° |
| 2026-05-07 07:34 | 36.06138 | 59.46167 | 39034 ft | 533 kts | 36° |
| 2026-05-07 07:34 | 36.11640 | 59.52298 | 39037 ft | 531 kts | 36° |
| 2026-05-07 07:35 | 36.17123 | 59.58415 | 39047 ft | 530 kts | 36° |
| 2026-05-07 07:35 | 36.22556 | 59.64569 | 39052 ft | 531 kts | 39° |
| 2026-05-07 07:36 | 36.27399 | 59.71538 | 39060 ft | 535 kts | 47° |
| 2026-05-07 07:36 | 36.31966 | 59.78833 | 39045 ft | 535 kts | 47° |
| 2026-05-07 07:37 | 36.36514 | 59.86067 | 39036 ft | 535 kts | 47° |
| 2026-05-07 07:37 | 36.41129 | 59.93325 | 39031 ft | 535 kts | 47° |
| 2026-05-07 07:38 | 36.45747 | 60.00577 | 39041 ft | 535 kts | 47° |
| 2026-05-07 07:38 | 36.50358 | 60.07837 | 39045 ft | 535 kts | 47° |
| 2026-05-07 07:39 | 36.54954 | 60.15100 | 39043 ft | 534 kts | 47° |
| 2026-05-07 07:39 | 36.59536 | 60.22354 | 39042 ft | 533 kts | 47° |
| 2026-05-07 07:40 | 36.64113 | 60.29616 | 39027 ft | 532 kts | 47° |
| 2026-05-07 07:40 | 36.68643 | 60.36856 | 39023 ft | 533 kts | 48° |
| 2026-05-07 07:41 | 36.73145 | 60.44184 | 39027 ft | 533 kts | 48° |
| 2026-05-07 07:41 | 36.77651 | 60.51540 | 39026 ft | 533 kts | 48° |
| 2026-05-07 07:42 | 36.82158 | 60.58894 | 39001 ft | 533 kts | 48° |
| 2026-05-07 07:42 | 36.86672 | 60.66269 | 39009 ft | 533 kts | 49° |
| 2026-05-07 07:43 | 36.91169 | 60.73634 | 38998 ft | 533 kts | 49° |
| 2026-05-07 07:43 | 36.95651 | 60.80992 | 38994 ft | 531 kts | 49° |
| 2026-05-07 07:44 | 37.00131 | 60.88337 | 38980 ft | 530 kts | 48° |
| 2026-05-07 07:44 | 37.04597 | 60.95595 | 38981 ft | 529 kts | 48° |
| 2026-05-07 07:45 | 37.09083 | 61.02901 | 38975 ft | 528 kts | 48° |
| 2026-05-07 07:45 | 37.13548 | 61.10202 | 38970 ft | 527 kts | 49° |
| 2026-05-07 07:46 | 37.18000 | 61.17499 | 38967 ft | 527 kts | 49° |
| 2026-05-07 07:46 | 37.22451 | 61.24789 | 38964 ft | 526 kts | 48° |
| 2026-05-07 07:47 | 37.26954 | 61.32027 | 38965 ft | 526 kts | 48° |
| 2026-05-07 07:47 | 37.31464 | 61.39257 | 38957 ft | 525 kts | 48° |
| 2026-05-07 07:48 | 37.35956 | 61.46496 | 38946 ft | 525 kts | 48° |
| 2026-05-07 07:48 | 37.40405 | 61.53697 | 38946 ft | 524 kts | 48° |
| 2026-05-07 07:49 | 37.44873 | 61.60946 | 38941 ft | 524 kts | 49° |
| 2026-05-07 07:49 | 37.49336 | 61.68199 | 38942 ft | 524 kts | 49° |
| 2026-05-07 07:50 | 37.53793 | 61.75460 | 38932 ft | 524 kts | 49° |
| 2026-05-07 07:50 | 37.58251 | 61.82736 | 38932 ft | 524 kts | 49° |
| 2026-05-07 07:51 | 37.62814 | 61.89898 | 38937 ft | 521 kts | 43° |
| 2026-05-07 07:51 | 37.67973 | 61.96115 | 38939 ft | 517 kts | 38° |
| 2026-05-07 07:52 | 37.73269 | 62.02160 | 38935 ft | 517 kts | 38° |
| 2026-05-07 07:52 | 37.78572 | 62.08291 | 38930 ft | 517 kts | 38° |
| 2026-05-07 07:53 | 37.83852 | 62.14474 | 38926 ft | 517 kts | 38° |
| 2026-05-07 07:53 | 37.89127 | 62.20677 | 38915 ft | 518 kts | 38° |
| 2026-05-07 07:54 | 37.94362 | 62.26840 | 38920 ft | 517 kts | 39° |
| 2026-05-07 07:54 | 37.99634 | 62.33056 | 38911 ft | 517 kts | 39° |
| 2026-05-07 07:55 | 38.04891 | 62.39267 | 38905 ft | 516 kts | 39° |
| 2026-05-07 07:55 | 38.09254 | 62.44431 | 38904 ft | 516 kts | 39° |
| 2026-05-07 07:56 | 38.15209 | 62.51848 | 38902 ft | 517 kts | 43° |
| 2026-05-07 07:56 | 38.20073 | 62.58592 | 38905 ft | 517 kts | 44° |
| 2026-05-07 07:57 | 38.24905 | 62.65369 | 38909 ft | 517 kts | 44° |
| 2026-05-07 07:57 | 38.28936 | 62.70992 | 38895 ft | 517 kts | 44° |
| 2026-05-07 07:58 | 38.34588 | 62.78847 | 38893 ft | 517 kts | 44° |
| 2026-05-07 07:58 | 38.39447 | 62.85609 | 38894 ft | 517 kts | 44° |
| 2026-05-07 07:59 | 38.43478 | 62.91232 | 38884 ft | 517 kts | 44° |
| 2026-05-07 07:59 | 38.48324 | 62.98009 | 38884 ft | 516 kts | 44° |
| 2026-05-07 08:00 | 38.53159 | 63.04784 | 38889 ft | 516 kts | 44° |
| 2026-05-07 08:00 | 38.57991 | 63.11570 | 38873 ft | 516 kts | 44° |
| 2026-05-07 08:01 | 38.62784 | 63.18316 | 38872 ft | 516 kts | 44° |
| 2026-05-07 08:01 | 38.67603 | 63.25113 | 38869 ft | 515 kts | 44° |
| 2026-05-07 08:02 | 38.72413 | 63.31913 | 38868 ft | 515 kts | 44° |
| 2026-05-07 08:02 | 38.77219 | 63.38721 | 38863 ft | 515 kts | 44° |
| 2026-05-07 08:03 | 38.82019 | 63.45537 | 38870 ft | 515 kts | 44° |
| 2026-05-07 08:03 | 38.86783 | 63.52312 | 38869 ft | 515 kts | 44° |
| 2026-05-07 08:04 | 38.91089 | 63.59703 | 38858 ft | 520 kts | 57° |
| 2026-05-07 08:04 | 38.94264 | 63.68072 | 38858 ft | 523 kts | 67° |
| 2026-05-07 08:05 | 38.96789 | 63.76834 | 38866 ft | 523 kts | 68° |
| 2026-05-07 08:05 | 38.99307 | 63.85619 | 38861 ft | 523 kts | 68° |
| 2026-05-07 08:06 | 39.01853 | 63.94305 | 38858 ft | 523 kts | 68° |
| 2026-05-07 08:06 | 39.04428 | 64.03058 | 38857 ft | 523 kts | 68° |
| 2026-05-07 08:07 | 39.06990 | 64.11814 | 38862 ft | 523 kts | 68° |
| 2026-05-07 08:07 | 39.09586 | 64.20555 | 38859 ft | 522 kts | 66° |
| 2026-05-07 08:08 | 39.12250 | 64.29187 | 38860 ft | 522 kts | 66° |
| 2026-05-07 08:08 | 39.14927 | 64.37876 | 38855 ft | 522 kts | 66° |
| 2026-05-07 08:09 | 39.17578 | 64.46571 | 38859 ft | 521 kts | 67° |
| 2026-05-07 08:09 | 39.20212 | 64.55259 | 38859 ft | 520 kts | 67° |
| 2026-05-07 08:10 | 39.22821 | 64.63890 | 38862 ft | 520 kts | 67° |
| 2026-05-07 08:10 | 39.25440 | 64.72579 | 38863 ft | 520 kts | 67° |
| 2026-05-07 08:11 | 39.28054 | 64.81273 | 38868 ft | 520 kts | 67° |
| 2026-05-07 08:11 | 39.30657 | 64.89973 | 38869 ft | 520 kts | 67° |
| 2026-05-07 08:12 | 39.33249 | 64.98685 | 38876 ft | 520 kts | 67° |
| 2026-05-07 08:12 | 39.35816 | 65.07343 | 38874 ft | 519 kts | 67° |
| 2026-05-07 08:13 | 39.38393 | 65.16057 | 38881 ft | 519 kts | 67° |
| 2026-05-07 08:13 | 39.40961 | 65.24769 | 38884 ft | 518 kts | 67° |
| 2026-05-07 08:14 | 39.43521 | 65.33481 | 38885 ft | 518 kts | 68° |
| 2026-05-07 08:14 | 39.46069 | 65.42184 | 38891 ft | 517 kts | 68° |
| 2026-05-07 08:15 | 39.48590 | 65.50821 | 38903 ft | 516 kts | 68° |
| 2026-05-07 08:15 | 39.51118 | 65.59510 | 38904 ft | 515 kts | 68° |
| 2026-05-07 08:16 | 39.53636 | 65.68195 | 38910 ft | 515 kts | 68° |
| 2026-05-07 08:16 | 39.56127 | 65.76816 | 38921 ft | 514 kts | 68° |
| 2026-05-07 08:17 | 39.58627 | 65.85494 | 38925 ft | 514 kts | 68° |
| 2026-05-07 08:17 | 39.61119 | 65.94172 | 38941 ft | 514 kts | 68° |
| 2026-05-07 08:18 | 39.63605 | 66.02854 | 38943 ft | 514 kts | 68° |
| 2026-05-07 08:18 | 39.66089 | 66.11548 | 38958 ft | 514 kts | 68° |
| 2026-05-07 08:19 | 39.68552 | 66.20195 | 38956 ft | 514 kts | 68° |
| 2026-05-07 08:19 | 39.71027 | 66.28917 | 38948 ft | 515 kts | 68° |
| 2026-05-07 08:20 | 39.73494 | 66.37638 | 38947 ft | 514 kts | 68° |
| 2026-05-07 08:20 | 39.76276 | 66.46168 | 38959 ft | 512 kts | 63° |
| 2026-05-07 08:21 | 39.79366 | 66.54499 | 38957 ft | 512 kts | 62° |
| 2026-05-07 08:21 | 39.82436 | 66.62772 | 38973 ft | 511 kts | 62° |
| 2026-05-07 08:22 | 39.85483 | 66.71106 | 38973 ft | 510 kts | 63° |
| 2026-05-07 08:22 | 39.88503 | 66.79441 | 38973 ft | 508 kts | 63° |
| 2026-05-07 08:23 | 39.91509 | 66.87764 | 38975 ft | 507 kts | 63° |
| 2026-05-07 08:23 | 39.94486 | 66.96020 | 38984 ft | 506 kts | 63° |
| 2026-05-07 08:24 | 39.97475 | 67.04331 | 38982 ft | 506 kts | 63° |
| 2026-05-07 08:24 | 40.00454 | 67.12639 | 38977 ft | 506 kts | 63° |
| 2026-05-07 08:25 | 40.03424 | 67.20948 | 38980 ft | 505 kts | 63° |
| 2026-05-07 08:25 | 40.06368 | 67.29206 | 38991 ft | 505 kts | 63° |
| 2026-05-07 08:26 | 40.10798 | 67.41676 | 38986 ft | 504 kts | 63° |
| 2026-05-07 08:26 | 40.13742 | 67.49996 | 38979 ft | 504 kts | 63° |
| 2026-05-07 08:27 | 40.16678 | 67.58315 | 38988 ft | 504 kts | 63° |
| 2026-05-07 08:27 | 40.19591 | 67.66578 | 38987 ft | 504 kts | 63° |
| 2026-05-07 08:28 | 40.22612 | 67.74852 | 38977 ft | 504 kts | 62° |
| 2026-05-07 08:28 | 40.25660 | 67.83114 | 38965 ft | 504 kts | 62° |
| 2026-05-07 08:29 | 40.28685 | 67.91392 | 38962 ft | 504 kts | 62° |
| 2026-05-07 08:29 | 40.31697 | 67.99678 | 38955 ft | 504 kts | 62° |
| 2026-05-07 08:30 | 40.34692 | 68.07916 | 38964 ft | 504 kts | 62° |
| 2026-05-07 08:30 | 40.37718 | 68.16203 | 38961 ft | 504 kts | 62° |
| 2026-05-07 08:31 | 40.40741 | 68.24504 | 38970 ft | 504 kts | 62° |
| 2026-05-07 08:31 | 40.43754 | 68.32810 | 38960 ft | 504 kts | 62° |
| 2026-05-07 08:32 | 40.46739 | 68.41066 | 38962 ft | 504 kts | 62° |
| 2026-05-07 08:32 | 40.49736 | 68.49377 | 38953 ft | 503 kts | 62° |
| 2026-05-07 08:33 | 40.52604 | 68.57767 | 38956 ft | 504 kts | 68° |
| 2026-05-07 08:33 | 40.54865 | 68.66494 | 38965 ft | 504 kts | 69° |
| 2026-05-07 08:34 | 40.57117 | 68.75159 | 38953 ft | 503 kts | 68° |
| 2026-05-07 08:34 | 40.59920 | 68.83547 | 38961 ft | 500 kts | 62° |
| 2026-05-07 08:35 | 40.62964 | 68.91781 | 38958 ft | 500 kts | 61° |
| 2026-05-07 08:35 | 40.65982 | 69.00035 | 38972 ft | 500 kts | 62° |
| 2026-05-07 08:36 | 40.68946 | 69.08264 | 38947 ft | 501 kts | 62° |
| 2026-05-07 08:36 | 40.71919 | 69.16564 | 38954 ft | 501 kts | 62° |
| 2026-05-07 08:37 | 40.74887 | 69.24866 | 38962 ft | 501 kts | 62° |
| 2026-05-07 08:37 | 40.77853 | 69.33177 | 38958 ft | 501 kts | 62° |
| 2026-05-07 08:38 | 40.80794 | 69.41439 | 38974 ft | 500 kts | 62° |
| 2026-05-07 08:38 | 40.83750 | 69.49761 | 38975 ft | 501 kts | 62° |
| 2026-05-07 08:39 | 40.86698 | 69.58084 | 39000 ft | 500 kts | 63° |
| 2026-05-07 08:39 | 40.89637 | 69.66410 | 39013 ft | 500 kts | 63° |
| 2026-05-07 08:40 | 40.92547 | 69.74678 | 39017 ft | 499 kts | 63° |
| 2026-05-07 08:40 | 40.95467 | 69.82997 | 39037 ft | 498 kts | 63° |
| 2026-05-07 08:41 | 40.98375 | 69.91307 | 39040 ft | 497 kts | 63° |
| 2026-05-07 08:41 | 41.01270 | 69.99606 | 39063 ft | 496 kts | 63° |
| 2026-05-07 08:42 | 41.04137 | 70.07847 | 39076 ft | 496 kts | 63° |
| 2026-05-07 08:42 | 41.07016 | 70.16146 | 39082 ft | 495 kts | 63° |
| 2026-05-07 08:43 | 41.09876 | 70.24452 | 39104 ft | 496 kts | 65° |
| 2026-05-07 08:43 | 41.12408 | 70.32958 | 39083 ft | 496 kts | 67° |
| 2026-05-07 08:44 | 41.14827 | 70.41521 | 39105 ft | 495 kts | 68° |
| 2026-05-07 08:44 | 41.17235 | 70.50017 | 39122 ft | 495 kts | 67° |
| 2026-05-07 08:45 | 41.19678 | 70.58577 | 39127 ft | 496 kts | 68° |
| 2026-05-07 08:45 | 41.22119 | 70.67137 | 39118 ft | 495 kts | 68° |
| 2026-05-07 08:46 | 41.24550 | 70.75690 | 39113 ft | 494 kts | 68° |
| 2026-05-07 08:46 | 41.26950 | 70.84168 | 39110 ft | 493 kts | 68° |
| 2026-05-07 08:47 | 41.29356 | 70.92696 | 39103 ft | 492 kts | 68° |
| 2026-05-07 08:47 | 41.31753 | 71.01221 | 39094 ft | 492 kts | 68° |
| 2026-05-07 08:48 | 41.34140 | 71.09744 | 39071 ft | 491 kts | 68° |
| 2026-05-07 08:48 | 41.36521 | 71.18261 | 39067 ft | 491 kts | 68° |
| 2026-05-07 08:49 | 41.38878 | 71.26729 | 39076 ft | 491 kts | 68° |
| 2026-05-07 08:49 | 41.41249 | 71.35275 | 39076 ft | 492 kts | 68° |
| 2026-05-07 08:50 | 41.43618 | 71.43839 | 39079 ft | 493 kts | 68° |
| 2026-05-07 08:50 | 41.45967 | 71.52360 | 39078 ft | 493 kts | 68° |
| 2026-05-07 08:51 | 41.48326 | 71.60946 | 39074 ft | 494 kts | 68° |
| 2026-05-07 08:51 | 41.50682 | 71.69553 | 39070 ft | 494 kts | 68° |
| 2026-05-07 08:52 | 41.53033 | 71.78171 | 39073 ft | 494 kts | 68° |
| 2026-05-07 08:52 | 41.55377 | 71.86793 | 39079 ft | 494 kts | 68° |
| 2026-05-07 08:53 | 41.57701 | 71.95369 | 39079 ft | 495 kts | 68° |
| 2026-05-07 08:53 | 41.60036 | 72.04023 | 39080 ft | 495 kts | 68° |
| 2026-05-07 08:54 | 41.62366 | 72.12680 | 39110 ft | 495 kts | 69° |
| 2026-05-07 08:54 | 41.64688 | 72.21339 | 39109 ft | 495 kts | 69° |
| 2026-05-07 08:55 | 41.66999 | 72.29993 | 39108 ft | 494 kts | 69° |
| 2026-05-07 08:55 | 41.69285 | 72.38585 | 39114 ft | 494 kts | 69° |
| 2026-05-07 08:56 | 41.71585 | 72.47250 | 39112 ft | 494 kts | 69° |
| 2026-05-07 08:56 | 41.73878 | 72.55922 | 39104 ft | 494 kts | 69° |
| 2026-05-07 08:57 | 41.76162 | 72.64593 | 39108 ft | 494 kts | 69° |
| 2026-05-07 08:57 | 41.78423 | 72.73215 | 39126 ft | 494 kts | 69° |
| 2026-05-07 08:58 | 41.80700 | 72.81921 | 39115 ft | 496 kts | 69° |
| 2026-05-07 08:58 | 41.82976 | 72.90655 | 39118 ft | 496 kts | 69° |
| 2026-05-07 08:59 | 41.85250 | 72.99398 | 39137 ft | 497 kts | 68° |
| 2026-05-07 08:59 | 41.87779 | 73.07947 | 39125 ft | 496 kts | 65° |
| 2026-05-07 09:00 | 41.90504 | 73.16431 | 39136 ft | 494 kts | 65° |
| 2026-05-07 09:00 | 41.93205 | 73.24912 | 39156 ft | 494 kts | 65° |
| 2026-05-07 09:01 | 41.95857 | 73.33408 | 39163 ft | 493 kts | 65° |
| 2026-05-07 09:01 | 41.98481 | 73.41912 | 39151 ft | 492 kts | 65° |
| 2026-05-07 09:02 | 42.01068 | 73.50323 | 39161 ft | 490 kts | 66° |
| 2026-05-07 09:02 | 42.03664 | 73.58788 | 39171 ft | 489 kts | 66° |
| 2026-05-07 09:03 | 42.06259 | 73.67267 | 39170 ft | 490 kts | 66° |
| 2026-05-07 09:03 | 42.08843 | 73.75741 | 39170 ft | 489 kts | 66° |
| 2026-05-07 09:04 | 42.11420 | 73.84218 | 39159 ft | 489 kts | 66° |
| 2026-05-07 09:04 | 42.13971 | 73.92637 | 39173 ft | 489 kts | 66° |
| 2026-05-07 09:05 | 42.16535 | 74.01124 | 39179 ft | 489 kts | 66° |
| 2026-05-07 09:05 | 42.19090 | 74.09613 | 39182 ft | 489 kts | 66° |
| 2026-05-07 09:06 | 42.21640 | 74.18108 | 39178 ft | 489 kts | 66° |
| 2026-05-07 09:06 | 42.24169 | 74.26567 | 39188 ft | 489 kts | 66° |
| 2026-05-07 09:07 | 42.26705 | 74.35070 | 39187 ft | 488 kts | 66° |
| 2026-05-07 09:07 | 42.29233 | 74.43581 | 39204 ft | 488 kts | 66° |
| 2026-05-07 09:08 | 42.31750 | 74.52079 | 39212 ft | 487 kts | 66° |
| 2026-05-07 09:08 | 42.34239 | 74.60511 | 39213 ft | 486 kts | 66° |
| 2026-05-07 09:09 | 42.36740 | 74.69010 | 39206 ft | 486 kts | 66° |
| 2026-05-07 09:09 | 42.39228 | 74.77494 | 39213 ft | 485 kts | 66° |
| 2026-05-07 09:10 | 42.41711 | 74.85991 | 38665 ft | 492 kts | 66° |
| 2026-05-07 09:10 | 42.42986 | 74.90353 | 37608 ft | 496 kts | 67° |
| 2026-05-07 09:10 | 42.44228 | 74.94627 | 36779 ft | 482 kts | 67° |
| 2026-05-07 09:11 | 42.45439 | 74.98800 | 35969 ft | 471 kts | 67° |
| 2026-05-07 09:11 | 42.46607 | 75.02832 | 35189 ft | 463 kts | 67° |
| 2026-05-07 09:11 | 42.47775 | 75.06867 | 34404 ft | 459 kts | 67° |
| 2026-05-07 09:11 | 42.48936 | 75.10880 | 33578 ft | 456 kts | 67° |
| 2026-05-07 09:12 | 42.50090 | 75.14878 | 32689 ft | 455 kts | 67° |
| 2026-05-07 09:12 | 42.51238 | 75.18855 | 31867 ft | 452 kts | 67° |
| 2026-05-07 09:12 | 42.52376 | 75.22809 | 31204 ft | 451 kts | 67° |
| 2026-05-07 09:12 | 42.53521 | 75.26790 | 30636 ft | 455 kts | 66° |
| 2026-05-07 09:13 | 42.54670 | 75.30790 | 30056 ft | 455 kts | 66° |
| 2026-05-07 09:13 | 42.55813 | 75.34779 | 29388 ft | 453 kts | 67° |
| 2026-05-07 09:13 | 42.56934 | 75.38700 | 28716 ft | 451 kts | 67° |
| 2026-05-07 09:13 | 42.58063 | 75.42657 | 28036 ft | 449 kts | 67° |
| 2026-05-07 09:14 | 42.59188 | 75.46599 | 27378 ft | 448 kts | 68° |
| 2026-05-07 09:14 | 42.60309 | 75.50535 | 26684 ft | 447 kts | 68° |
| 2026-05-07 09:14 | 42.61425 | 75.54463 | 26033 ft | 445 kts | 68° |
| 2026-05-07 09:14 | 42.62537 | 75.58382 | 25381 ft | 444 kts | 68° |
| 2026-05-07 09:15 | 42.63644 | 75.62291 | 24748 ft | 443 kts | 68° |
| 2026-05-07 09:15 | 42.64746 | 75.66185 | 24145 ft | 441 kts | 68° |
| 2026-05-07 09:15 | 42.65825 | 75.70002 | 23607 ft | 437 kts | 68° |
| 2026-05-07 09:15 | 42.66908 | 75.73847 | 22958 ft | 434 kts | 68° |
| 2026-05-07 09:16 | 42.67983 | 75.77661 | 22338 ft | 430 kts | 68° |
| 2026-05-07 09:16 | 42.69047 | 75.81446 | 21732 ft | 427 kts | 68° |
| 2026-05-07 09:16 | 42.70102 | 75.85207 | 21132 ft | 424 kts | 68° |
| 2026-05-07 09:16 | 42.71149 | 75.88940 | 20539 ft | 422 kts | 68° |
| 2026-05-07 09:17 | 42.72189 | 75.92654 | 19957 ft | 419 kts | 68° |
| 2026-05-07 09:17 | 42.73222 | 75.96347 | 19405 ft | 417 kts | 68° |
| 2026-05-07 09:17 | 42.74249 | 76.00025 | 18857 ft | 415 kts | 68° |
| 2026-05-07 09:17 | 42.75268 | 76.03684 | 18284 ft | 411 kts | 67° |
| 2026-05-07 09:18 | 42.76518 | 76.07055 | 17716 ft | 401 kts | 55° |
| 2026-05-07 09:18 | 42.78160 | 76.10060 | 17447 ft | 390 kts | 50° |
| 2026-05-07 09:18 | 42.79859 | 76.12875 | 17207 ft | 380 kts | 49° |
| 2026-05-07 09:18 | 42.81533 | 76.15595 | 16995 ft | 369 kts | 48° |
| 2026-05-07 09:19 | 42.83164 | 76.18235 | 16796 ft | 360 kts | 49° |
| 2026-05-07 09:19 | 42.84767 | 76.20809 | 16566 ft | 353 kts | 48° |
| 2026-05-07 09:19 | 42.86344 | 76.23344 | 16381 ft | 350 kts | 48° |
| 2026-05-07 09:19 | 42.87922 | 76.25881 | 16193 ft | 352 kts | 48° |
| 2026-05-07 09:20 | 42.89496 | 76.28409 | 16017 ft | 347 kts | 48° |
| 2026-05-07 09:20 | 42.91025 | 76.30856 | 15793 ft | 340 kts | 48° |
| 2026-05-07 09:20 | 42.92560 | 76.33278 | 15560 ft | 334 kts | 47° |
| 2026-05-07 09:20 | 42.94116 | 76.35632 | 15158 ft | 335 kts | 46° |
| 2026-05-07 09:21 | 42.95694 | 76.37999 | 14678 ft | 339 kts | 46° |
| 2026-05-07 09:21 | 42.97284 | 76.40385 | 14197 ft | 341 kts | 46° |
| 2026-05-07 09:21 | 42.98892 | 76.42805 | 13586 ft | 347 kts | 47° |
| 2026-05-07 09:21 | 43.00522 | 76.45274 | 12852 ft | 347 kts | 47° |
| 2026-05-07 09:22 | 43.02104 | 76.47683 | 12097 ft | 334 kts | 46° |
| 2026-05-07 09:22 | 43.03625 | 76.50005 | 11336 ft | 322 kts | 47° |
| 2026-05-07 09:22 | 43.05072 | 76.52212 | 10745 ft | 310 kts | 47° |
| 2026-05-07 09:22 | 43.06482 | 76.54367 | 10164 ft | 299 kts | 48° |
| 2026-05-07 09:23 | 43.07860 | 76.56477 | 9557 ft | 300 kts | 47° |
| 2026-05-07 09:23 | 43.09267 | 76.58633 | 8963 ft | 308 kts | 47° |
| 2026-05-07 09:23 | 43.10701 | 76.60830 | 8334 ft | 305 kts | 47° |
| 2026-05-07 09:23 | 43.12084 | 76.62953 | 7727 ft | 293 kts | 47° |
| 2026-05-07 09:24 | 43.13417 | 76.64998 | 7109 ft | 283 kts | 47° |
| 2026-05-07 09:24 | 43.14705 | 76.66976 | 6525 ft | 274 kts | 47° |
| 2026-05-07 09:24 | 43.15956 | 76.68900 | 5916 ft | 267 kts | 47° |
| 2026-05-07 09:24 | 43.17179 | 76.70781 | 5327 ft | 262 kts | 47° |
| 2026-05-07 09:25 | 43.18376 | 76.72623 | 4735 ft | 256 kts | 47° |
| 2026-05-07 09:25 | 43.19507 | 76.74363 | 4423 ft | 237 kts | 47° |
| 2026-05-07 09:25 | 43.20579 | 76.76016 | 4252 ft | 228 kts | 47° |
| 2026-05-07 09:25 | 43.21602 | 76.77592 | 4237 ft | 214 kts | 47° |
| 2026-05-07 09:26 | 43.22587 | 76.79100 | 4225 ft | 211 kts | 47° |
| 2026-05-07 09:26 | 43.23539 | 76.80614 | 4218 ft | 206 kts | 50° |
| 2026-05-07 09:26 | 43.24372 | 76.82136 | 4217 ft | 193 kts | 53° |
| 2026-05-07 09:26 | 43.25141 | 76.83651 | 4258 ft | 190 kts | 54° |
| 2026-05-07 09:27 | 43.25868 | 76.85108 | 4222 ft | 178 kts | 54° |
| 2026-05-07 09:27 | 43.26555 | 76.86491 | 4208 ft | 173 kts | 54° |
| 2026-05-07 09:27 | 43.27889 | 76.89180 | 4212 ft | 170 kts | 56° |
| 2026-05-07 09:28 | 43.28558 | 76.90530 | 4147 ft | 175 kts | 56° |
| 2026-05-07 09:28 | 43.29013 | 76.91445 | 3959 ft | 174 kts | 56° |